Time;durP1;ratioP1;P1;durP2;ratioP2;P2;SDS_P1;SDS_P2;PMS_P1;PMS_P2;Temp;Humidity;BMP_temperature;BMP_pressure;BME280_temperature;BME280_humidity;BME280_pressure;Samples;Min_cycle;Max_cycle;Signal;HPM_P1;HPM_P2
2023/08/10 00:00:42;;;;;;;4.53;2.53;;;;;;;18.28;77.67;99796.78;5049173;28;20065;-48
2023/08/10 00:03:09;;;;;;;3.90;2.45;;;;;;;18.21;77.64;99797.19;5023768;28;20106;-44
2023/08/10 00:05:36;;;;;;;4.53;2.80;;;;;;;18.19;77.73;99793.81;5025026;28;20042;-44
2023/08/10 00:08:03;;;;;;;5.85;2.80;;;;;;;18.17;77.69;99787.78;5024474;28;20037;-46
2023/08/10 00:10:29;;;;;;;5.15;2.65;;;;;;;18.17;78.01;99797.47;5026497;28;20041;-45
2023/08/10 00:12:55;;;;;;;4.35;2.40;;;;;;;18.17;78.28;99797.47;5021578;28;20067;-44
2023/08/10 00:15:21;;;;;;;4.53;2.60;;;;;;;18.00;78.36;99779.31;5025481;28;20045;-42
2023/08/10 00:17:47;;;;;;;7.68;3.03;;;;;;;18.12;78.49;99810.06;5027864;28;20068;-43
2023/08/10 00:20:12;;;;;;;3.70;2.83;;;;;;;18.04;78.66;99796.56;5026809;28;20122;-44
2023/08/10 00:22:38;;;;;;;6.28;2.50;;;;;;;18.08;78.66;99814.69;5022541;28;20095;-48
2023/08/10 00:25:05;;;;;;;4.47;2.55;;;;;;;18.04;78.71;99820.25;5021281;28;20159;-47
2023/08/10 00:27:33;;;;;;;4.90;2.40;;;;;;;18.02;78.61;99814.22;5020166;28;20052;-46
2023/08/10 00:30:00;;;;;;;4.25;2.50;;;;;;;18.04;78.61;99818.47;5023018;28;20050;-45
2023/08/10 00:32:26;;;;;;;4.55;2.67;;;;;;;18.03;78.57;99815.94;5020776;28;20049;-49
2023/08/10 00:34:52;;;;;;;3.33;2.22;;;;;;;18.02;78.71;99817.72;5027806;28;20041;-51
2023/08/10 00:37:18;;;;;;;7.80;2.53;;;;;;;18.03;78.80;99824.66;5028023;28;20484;-45
2023/08/10 00:39:44;;;;;;;5.47;2.20;;;;;;;17.89;78.89;99805.44;5022901;28;20049;-49
2023/08/10 00:42:10;;;;;;;4.57;2.70;;;;;;;18.03;78.74;99823.81;5024863;28;20064;-47
2023/08/10 00:44:36;;;;;;;4.72;2.60;;;;;;;18.02;78.68;99825.59;5025797;28;20037;-49
2023/08/10 00:47:03;;;;;;;4.85;2.50;;;;;;;17.98;78.56;99829.38;5023002;28;20074;-49
2023/08/10 00:49:30;;;;;;;6.82;2.80;;;;;;;17.99;78.72;99830.22;5030932;28;20068;-46
2023/08/10 00:51:56;;;;;;;7.63;2.47;;;;;;;17.96;78.90;99828.63;5027400;28;20052;-48
2023/08/10 00:54:22;;;;;;;10.23;2.65;;;;;;;17.70;78.89;99788.16;5028687;28;20037;-45
2023/08/10 00:56:50;;;;;;;4.75;2.53;;;;;;;17.96;79.04;99830.41;5028846;28;20069;-48
2023/08/10 00:59:17;;;;;;;10.30;2.90;;;;;;;17.98;79.11;99837.28;5051831;28;20125;-47
2023/08/10 01:01:44;;;;;;;5.53;2.80;;;;;;;17.95;79.04;99847.97;5036002;28;20180;-47
2023/08/10 01:04:10;;;;;;;3.10;2.30;;;;;;;17.91;79.27;99843.00;5030848;28;20139;-50
2023/08/10 01:06:51;;;;;;;4.38;2.42;;;;;;;17.91;79.36;99848.25;4997619;28;20037;-48
2023/08/10 01:09:39;;;;;;;7.05;2.40;;;;;;;17.89;79.51;99851.00;5007160;28;20049;-48
2023/08/10 01:12:23;;;;;;;7.05;2.40;;;;;;;17.86;79.44;99856.44;5012570;28;20049;-45
2023/08/10 01:15:16;;;;;;;5.05;2.60;;;;;;;17.82;79.36;99857.56;5027233;28;20034;-47
2023/08/10 01:17:51;;;;;;;4.38;2.38;;;;;;;17.82;79.35;99867.22;5030085;28;20045;-46
2023/08/10 01:20:19;;;;;;;8.00;2.53;;;;;;;17.83;79.49;99869.78;5014106;28;20096;-46
2023/08/10 01:22:51;;;;;;;4.93;2.63;;;;;;;17.84;79.40;99876.75;5028684;28;20041;-48
2023/08/10 01:25:17;;;;;;;6.63;3.03;;;;;;;17.84;79.76;99871.47;5013710;28;20042;-46
2023/08/10 01:27:45;;;;;;;5.65;2.90;;;;;;;17.64;79.45;99849.00;5011709;28;20041;-47
2023/08/10 01:30:11;;;;;;;5.40;3.03;;;;;;;17.87;79.48;99875.69;5027464;28;20559;-45
2023/08/10 01:32:38;;;;;;;5.85;2.67;;;;;;;17.87;79.57;99884.44;5021791;28;20042;-47
2023/08/10 01:35:08;;;;;;;5.03;2.58;;;;;;;17.85;79.41;99883.66;5013594;28;20068;-50
2023/08/10 01:37:37;;;;;;;4.35;2.55;;;;;;;17.83;79.70;99882.09;5013688;28;20033;-44
2023/08/10 01:40:12;;;;;;;6.90;2.80;;;;;;;17.65;79.67;99855.09;5041501;28;20047;-45
2023/08/10 01:42:38;;;;;;;4.45;2.70;;;;;;;17.79;79.83;99890.13;5028413;28;20038;-47
2023/08/10 01:45:05;;;;;;;4.45;2.40;;;;;;;17.79;79.94;99889.31;5024313;28;20487;-51
2023/08/10 01:47:45;;;;;;;6.07;2.33;;;;;;;17.79;79.97;99898.03;5029127;28;20428;-47
2023/08/10 01:50:12;;;;;;;3.35;2.63;;;;;;;17.77;80.04;99891.19;5034500;28;20072;-48
2023/08/10 01:52:43;;;;;;;5.32;2.47;;;;;;;17.77;80.14;99896.44;5049320;28;20048;-47
2023/08/10 01:55:09;;;;;;;4.03;2.75;;;;;;;17.74;80.21;99889.56;5031053;28;20035;-47
2023/08/10 01:57:36;;;;;;;6.05;2.60;;;;;;;17.75;80.22;99906.22;5031083;28;20526;-47
2023/08/10 02:00:03;;;;;;;5.68;2.58;;;;;;;17.75;80.30;99898.31;5004449;28;20119;-47
2023/08/10 02:02:43;;;;;;;6.47;2.60;;;;;;;17.71;80.22;99896.81;5012281;28;20072;-45
2023/08/10 02:05:12;;;;;;;5.82;2.47;;;;;;;17.72;80.13;99901.13;5012799;28;20151;-46
2023/08/10 02:07:38;;;;;;;4.90;2.80;;;;;;;17.71;80.00;99902.94;5026463;28;20034;-50
2023/08/10 02:10:05;;;;;;;6.90;2.95;;;;;;;17.68;79.97;99908.38;5030369;28;20042;-48
2023/08/10 02:12:33;;;;;;;5.68;2.80;;;;;;;17.70;79.95;99919.63;5030875;28;20048;-49
2023/08/10 02:15:00;;;;;;;4.97;2.75;;;;;;;17.70;80.21;99922.25;5025950;28;20500;-46
2023/08/10 02:17:29;;;;;;;5.55;2.50;;;;;;;17.74;80.30;99925.56;5050879;28;20034;-48
2023/08/10 02:19:56;;;;;;;5.40;2.80;;;;;;;17.60;80.43;99901.88;5021504;28;20437;-47
2023/08/10 02:22:22;;;;;;;4.45;2.22;;;;;;;17.62;80.22;99915.78;5013066;28;20120;-43
2023/08/10 02:24:48;;;;;;;3.67;2.45;;;;;;;17.76;80.17;99940.31;5025939;28;20037;-45
2023/08/10 02:27:14;;;;;;;7.63;2.60;;;;;;;17.77;80.26;99941.16;5029094;28;20091;-46
2023/08/10 02:29:40;;;;;;;4.97;2.88;;;;;;;17.65;80.29;99920.84;5027588;28;20055;-46
2023/08/10 02:32:06;;;;;;;4.43;3.00;;;;;;;17.82;79.92;99954.03;5027934;28;20539;-46
2023/08/10 02:34:32;;;;;;;7.78;3.15;;;;;;;17.86;79.94;99952.91;5027490;28;20041;-43
2023/08/10 02:36:58;;;;;;;7.80;2.83;;;;;;;17.88;79.80;99941.38;5028685;28;20037;-45
2023/08/10 02:39:24;;;;;;;4.00;2.30;;;;;;;17.94;79.51;99948.03;5027813;28;20060;-48
2023/08/10 02:41:50;;;;;;;4.70;2.63;;;;;;;17.89;79.38;99929.91;5028668;28;20092;-46
2023/08/10 02:44:19;;;;;;;7.35;2.80;;;;;;;17.89;78.88;99926.44;5027988;28;20040;-48
2023/08/10 02:46:45;;;;;;;4.30;2.43;;;;;;;17.90;78.75;99931.56;5025082;28;20681;-47
2023/08/10 02:49:11;;;;;;;6.63;3.20;;;;;;;18.08;78.71;99958.56;5026298;28;20128;-48
2023/08/10 02:51:39;;;;;;;8.85;3.10;;;;;;;18.09;78.64;99953.22;5027686;28;20037;-47
2023/08/10 02:54:05;;;;;;;4.32;2.83;;;;;;;18.09;78.66;99952.38;5027631;28;20053;-47
2023/08/10 02:56:31;;;;;;;5.10;2.88;;;;;;;18.12;78.66;99957.44;5010518;28;20037;-46
2023/08/10 02:58:57;;;;;;;6.75;2.47;;;;;;;18.13;78.40;99962.63;5007442;28;20045;-45
2023/08/10 03:01:23;;;;;;;3.30;2.47;;;;;;;18.12;78.28;99966.19;5019371;28;20499;-46
2023/08/10 03:03:49;;;;;;;5.90;2.60;;;;;;;18.13;78.21;99961.78;5029125;28;20626;-48
2023/08/10 03:06:15;;;;;;;3.58;2.50;;;;;;;18.13;78.36;99967.03;5026062;28;20037;-47
2023/08/10 03:08:41;;;;;;;7.05;2.72;;;;;;;18.12;78.04;99968.81;5028673;28;20543;-48
2023/08/10 03:11:07;;;;;;;5.25;2.80;;;;;;;18.13;78.02;99969.66;5010899;28;20073;-50
2023/08/10 03:13:33;;;;;;;8.10;2.75;;;;;;;18.11;77.95;99975.00;5035227;28;20513;-48
2023/08/10 03:15:59;;;;;;;5.45;2.70;;;;;;;17.92;77.85;99944.66;5035568;28;20049;-49
2023/08/10 03:18:25;;;;;;;3.50;2.65;;;;;;;18.10;77.87;99978.59;5025727;28;20033;-46
2023/08/10 03:20:51;;;;;;;8.10;2.90;;;;;;;18.13;78.03;99975.78;5027411;28;20045;-49
2023/08/10 03:23:17;;;;;;;6.80;2.40;;;;;;;18.16;78.05;99980.84;5026797;28;20527;-48
2023/08/10 03:25:43;;;;;;;5.93;3.15;;;;;;;18.24;77.92;99984.81;5010080;28;20135;-47
2023/08/10 03:28:10;;;;;;;5.70;2.80;;;;;;;18.25;77.64;99976.81;5026783;28;20536;-45
2023/08/10 03:30:37;;;;;;;5.25;3.10;;;;;;;18.27;77.63;99981.97;5024003;28;20124;-46
2023/08/10 03:33:03;;;;;;;5.45;2.90;;;;;;;18.32;77.49;99978.13;5010395;28;20033;-45
2023/08/10 03:35:30;;;;;;;4.90;2.53;;;;;;;18.34;77.35;99976.25;5025982;28;20053;-45
2023/08/10 03:37:56;;;;;;;8.65;3.03;;;;;;;18.37;77.17;99977.88;5027019;28;20116;-46
2023/08/10 03:40:22;;;;;;;6.82;2.80;;;;;;;18.42;77.09;99981.88;5022906;28;20532;-47
2023/08/10 03:42:48;;;;;;;9.55;3.17;;;;;;;18.49;76.76;99990.25;5041648;28;20052;-46
2023/08/10 03:45:14;;;;;;;5.95;3.03;;;;;;;18.57;76.65;99990.66;5027112;28;20114;-50
2023/08/10 03:47:40;;;;;;;7.55;4.00;;;;;;;18.68;76.31;99992.63;5027193;28;20132;-49
2023/08/10 03:50:07;;;;;;;6.22;2.80;;;;;;;18.77;75.88;99994.69;5030421;28;20136;-47
2023/08/10 03:52:33;;;;;;;5.63;3.33;;;;;;;18.81;75.69;100002.28;5031889;28;20446;-46
2023/08/10 03:54:59;;;;;;;8.25;2.90;;;;;;;18.83;75.54;100005.69;5024302;28;20742;-49
2023/08/10 03:57:32;;;;;;;11.52;3.30;;;;;;;18.68;75.58;99974.19;5025983;28;20033;-51
2023/08/10 03:59:59;;;;;;;6.75;2.78;;;;;;;18.84;75.54;100002.09;5021387;28;20068;-47
2023/08/10 04:02:26;;;;;;;8.55;3.28;;;;;;;18.81;75.37;100007.56;5016140;28;20045;-51
2023/08/10 04:04:52;;;;;;;8.63;3.00;;;;;;;18.82;75.28;100011.03;5028554;28;20096;-53
2023/08/10 04:07:19;;;;;;;7.32;2.83;;;;;;;18.86;75.29;100008.13;5026905;28;20042;-50
2023/08/10 04:09:47;;;;;;;7.60;3.22;;;;;;;18.89;75.15;100007.91;5025489;28;20045;-50
2023/08/10 04:12:14;;;;;;;5.22;2.90;;;;;;;18.91;74.83;100016.56;5036442;28;20056;-50
2023/08/10 04:14:41;;;;;;;8.30;2.88;;;;;;;18.87;74.70;100017.72;5027400;28;20200;-50
2023/08/10 04:17:07;;;;;;;5.15;2.78;;;;;;;18.87;74.74;100011.59;5026644;28;20041;-52
2023/08/10 04:19:33;;;;;;;9.15;3.28;;;;;;;18.89;74.74;100015.00;5027214;28;20053;-50
2023/08/10 04:21:59;;;;;;;7.18;2.63;;;;;;;18.70;74.53;99985.47;5009747;28;20057;-51
2023/08/10 04:24:25;;;;;;;5.63;2.92;;;;;;;18.92;74.38;100020.91;5027125;28;20049;-50
2023/08/10 04:26:51;;;;;;;6.13;2.65;;;;;;;18.79;74.29;99991.00;5020740;28;20038;-50
2023/08/10 04:29:17;;;;;;;6.07;3.38;;;;;;;18.94;74.19;100016.41;5028452;28;20037;-52
2023/08/10 04:31:43;;;;;;;5.93;2.85;;;;;;;18.95;73.94;100012.78;5022193;28;20508;-48
2023/08/10 04:34:09;;;;;;;6.43;2.75;;;;;;;18.98;73.76;100019.69;5027028;28;20037;-51
2023/08/10 04:36:35;;;;;;;6.72;3.33;;;;;;;19.03;73.75;100026.34;5024937;28;20524;-48
2023/08/10 04:39:01;;;;;;;4.95;2.58;;;;;;;19.10;73.83;100023.31;4976213;28;20051;-48
2023/08/10 04:41:27;;;;;;;10.23;4.18;;;;;;;19.12;73.58;100024.06;5028334;28;20045;-50
2023/08/10 04:43:53;;;;;;;11.07;4.22;;;;;;;19.20;73.73;100021.78;5026683;28;20041;-47
2023/08/10 04:46:19;;;;;;;6.63;3.08;;;;;;;19.15;73.49;100006.28;5025170;28;20551;-50
2023/08/10 04:48:45;;;;;;;5.72;3.28;;;;;;;19.33;73.30;100027.94;5026767;28;20476;-50
2023/08/10 04:51:11;;;;;;;6.68;3.00;;;;;;;19.38;73.15;100025.84;5009559;28;20076;-51
2023/08/10 04:53:37;;;;;;;11.10;3.00;;;;;;;19.29;72.99;100003.59;5025763;28;20045;-47
2023/08/10 04:56:03;;;;;;;6.63;2.70;;;;;;;19.52;72.69;100028.50;5010089;28;20041;-48
2023/08/10 04:58:29;;;;;;;10.40;3.30;;;;;;;19.61;72.52;100034.94;5009029;28;20049;-50
2023/08/10 05:00:55;;;;;;;8.27;3.40;;;;;;;19.65;72.18;100037.28;5023927;28;20875;-49
2023/08/10 05:03:21;;;;;;;8.25;3.20;;;;;;;19.72;71.87;100035.09;5022151;28;20056;-51
2023/08/10 05:05:48;;;;;;;5.78;2.92;;;;;;;19.72;71.50;100016.63;5021449;28;20073;-49
2023/08/10 05:08:13;;;;;;;4.57;2.95;;;;;;;19.81;71.30;100029.19;5026731;28;20037;-47
2023/08/10 05:10:43;;;;;;;4.75;2.65;;;;;;;19.87;70.88;100028.78;5027450;28;20041;-46
2023/08/10 05:13:09;;;;;;;6.75;2.80;;;;;;;19.93;70.58;100031.00;5025251;28;20641;-51
2023/08/10 05:15:35;;;;;;;5.50;2.80;;;;;;;19.99;70.79;100037.69;5024525;28;20041;-48
2023/08/10 05:18:02;;;;;;;5.53;3.20;;;;;;;19.95;70.46;100018.53;4993103;28;20394;-46
2023/08/10 05:20:28;;;;;;;7.82;2.75;;;;;;;20.15;70.28;100040.97;5021071;28;20062;-46
2023/08/10 05:22:54;;;;;;;5.30;3.08;;;;;;;20.22;69.89;100037.78;5007550;28;20077;-48
2023/08/10 05:25:20;;;;;;;4.68;2.85;;;;;;;20.26;69.56;100036.63;5000952;28;20053;-53
2023/08/10 05:27:46;;;;;;;4.20;2.90;;;;;;;20.37;69.36;100045.63;5025054;28;20046;-52
2023/08/10 05:30:12;;;;;;;5.18;3.22;;;;;;;20.29;69.21;100011.81;5019305;28;20037;-52
2023/08/10 05:32:39;;;;;;;5.22;3.03;;;;;;;20.57;69.11;100042.44;5021142;28;20048;-53
2023/08/10 05:35:08;;;;;;;10.38;2.60;;;;;;;20.66;68.78;100049.75;5028655;28;20040;-53
2023/08/10 05:37:35;;;;;;;7.90;4.53;;;;;;;20.75;68.63;100041.19;5031205;28;20034;-51
2023/08/10 05:40:02;;;;;;;4.22;2.95;;;;;;;20.84;68.33;100048.44;5031136;28;20045;-50
2023/08/10 05:42:29;;;;;;;6.75;3.47;;;;;;;20.92;67.81;100047.91;5026463;28;20118;-53
2023/08/10 05:44:56;;;;;;;7.22;3.25;;;;;;;21.04;67.58;100050.50;5029643;28;20516;-50
2023/08/10 05:47:21;;;;;;;6.15;2.40;;;;;;;21.15;67.32;100057.69;5028009;28;20520;-53
2023/08/10 05:49:47;;;;;;;8.07;2.80;;;;;;;21.27;67.02;100053.34;5029671;28;20033;-53
2023/08/10 05:52:13;;;;;;;4.70;3.00;;;;;;;21.40;67.06;100060.28;5030935;28;20053;-51
2023/08/10 05:54:39;;;;;;;7.57;3.03;;;;;;;21.51;66.37;100055.03;5028534;28;20461;-53
2023/08/10 05:57:05;;;;;;;4.95;2.85;;;;;;;21.60;66.15;100058.81;5029616;28;20080;-47
2023/08/10 05:59:31;;;;;;;4.35;2.58;;;;;;;21.70;65.87;100058.97;5029635;28;20520;-49
2023/08/10 06:01:57;;;;;;;6.25;2.70;;;;;;;21.67;65.34;100048.63;5025784;28;20136;-50
2023/08/10 06:04:23;;;;;;;5.93;4.10;;;;;;;21.87;64.83;100070.00;5028992;28;20471;-51
2023/08/10 06:06:49;;;;;;;8.55;3.55;;;;;;;21.84;64.47;100041.09;5029228;28;20041;-47
2023/08/10 06:09:16;;;;;;;6.10;3.33;;;;;;;22.12;64.07;100061.09;5030646;28;20043;-50
2023/08/10 06:11:42;;;;;;;8.27;3.17;;;;;;;22.26;63.74;100060.88;5026748;28;20439;-47
2023/08/10 06:14:09;;;;;;;7.38;2.95;;;;;;;22.39;63.20;100069.56;5021393;28;20061;-46
2023/08/10 06:16:35;;;;;;;4.28;2.75;;;;;;;22.38;62.62;100059.94;5027956;28;20040;-47
2023/08/10 06:19:01;;;;;;;7.38;3.00;;;;;;;22.58;62.03;100068.13;5020279;28;20049;-46
2023/08/10 06:21:27;;;;;;;9.63;3.63;;;;;;;22.85;61.83;100084.56;5030087;28;20119;-48
2023/08/10 06:23:53;;;;;;;4.25;2.50;;;;;;;23.01;60.99;100086.84;5028712;28;20045;-52
2023/08/10 06:26:19;;;;;;;5.63;3.10;;;;;;;23.17;60.34;100082.88;5028456;28;20045;-47
2023/08/10 06:28:45;;;;;;;6.30;3.70;;;;;;;23.55;59.46;100089.56;5028824;28;20040;-51
2023/08/10 06:31:11;;;;;;;5.47;2.97;;;;;;;24.36;57.47;100092.47;5027674;28;20460;-51
2023/08/10 06:33:37;;;;;;;5.65;2.70;;;;;;;25.50;54.77;100084.25;5022884;28;20044;-46
2023/08/10 06:36:06;;;;;;;6.00;3.17;;;;;;;26.47;52.24;100061.97;5027518;28;20811;-50
2023/08/10 06:38:36;;;;;;;6.60;2.47;;;;;;;27.68;50.00;100092.91;5028694;28;20038;-47
2023/08/10 06:41:02;;;;;;;7.20;2.90;;;;;;;28.54;48.01;100085.06;5027416;28;20572;-53
2023/08/10 06:43:29;;;;;;;5.95;3.25;;;;;;;29.43;45.95;100089.03;5023366;28;20203;-51
2023/08/10 06:45:55;;;;;;;4.55;3.00;;;;;;;30.55;43.82;100093.84;5028159;28;20045;-48
2023/08/10 06:48:21;;;;;;;3.80;2.70;;;;;;;31.55;41.71;100104.72;5011455;28;20552;-47
2023/08/10 06:50:48;;;;;;;5.20;2.50;;;;;;;32.40;39.53;100107.28;5021715;28;20187;-47
2023/08/10 06:53:14;;;;;;;5.88;2.70;;;;;;;33.30;37.97;100109.88;5028864;28;20136;-53
2023/08/10 06:55:40;;;;;;;3.10;2.40;;;;;;;33.91;36.20;100103.97;5024457;28;20215;-48
2023/08/10 06:58:08;;;;;;;4.10;2.63;;;;;;;34.64;34.93;100104.56;5024656;28;20560;-49
2023/08/10 07:00:35;;;;;;;6.03;2.95;;;;;;;35.37;33.36;100112.09;5027293;28;20572;-52
2023/08/10 07:03:02;;;;;;;3.20;2.90;;;;;;;36.25;32.04;100112.91;5042102;28;20054;-47
2023/08/10 07:05:29;;;;;;;8.07;2.43;;;;;;;36.96;30.76;100113.03;5047817;28;20048;-50
2023/08/10 07:07:55;;;;;;;3.85;2.78;;;;;;;37.53;29.71;100107.59;5027850;28;20296;-52
2023/08/10 07:10:22;;;;;;;5.65;2.97;;;;;;;38.05;28.76;100100.22;5011580;28;20133;-50
2023/08/10 07:12:48;;;;;;;5.35;3.47;;;;;;;38.72;27.96;100096.69;5026820;28;20045;-52
2023/08/10 07:15:15;;;;;;;5.15;3.35;;;;;;;39.39;27.08;100117.50;5027671;28;20554;-51
2023/08/10 07:17:41;;;;;;;3.60;2.78;;;;;;;40.10;26.18;100124.84;5011556;28;20156;-46
2023/08/10 07:20:08;;;;;;;4.82;3.33;;;;;;;40.52;25.39;100122.06;5017168;28;20163;-48
2023/08/10 07:22:34;;;;;;;4.13;2.67;;;;;;;40.21;24.59;100107.72;5025963;28;20515;-49
2023/08/10 07:25:05;;;;;;;5.38;3.13;;;;;;;39.43;25.36;100119.75;5010001;28;20441;-48
2023/08/10 07:27:35;;;;;;;5.60;3.40;;;;;;;39.73;24.55;100104.22;5022965;28;20049;-54
2023/08/10 07:30:03;;;;;;;6.65;3.20;;;;;;;40.36;24.48;100123.59;5028171;28;20045;-53
2023/08/10 07:32:31;;;;;;;6.35;5.05;;;;;;;41.15;23.71;100140.44;5028954;28;20072;-50
2023/08/10 07:34:57;;;;;;;3.92;3.20;;;;;;;41.78;22.88;100127.50;5020633;28;20029;-50
2023/08/10 07:37:23;;;;;;;6.80;3.78;;;;;;;42.08;22.40;100093.63;5028023;28;20041;-50
2023/08/10 07:39:49;;;;;;;6.85;3.97;;;;;;;43.03;21.87;100126.25;5020453;28;20045;-58
2023/08/10 07:42:15;;;;;;;6.00;3.67;;;;;;;43.32;21.51;100133.22;5021775;28;20409;-54
2023/08/10 07:44:41;;;;;;;4.70;3.05;;;;;;;43.63;20.85;100122.63;5022653;28;20048;-55
2023/08/10 07:47:07;;;;;;;6.53;5.30;;;;;;;43.77;20.42;100130.16;5024497;28;20094;-51
2023/08/10 07:49:33;;;;;;;5.15;4.18;;;;;;;44.00;20.08;100129.03;5023784;28;20080;-52
2023/08/10 07:51:59;;;;;;;5.95;3.17;;;;;;;43.67;20.26;100102.66;5028553;28;20122;-52
2023/08/10 07:54:25;;;;;;;3.67;3.10;;;;;;;43.75;20.04;100123.31;5035035;28;20040;-53
2023/08/10 07:56:51;;;;;;;6.40;5.40;;;;;;;43.57;20.06;100112.69;5026485;28;20041;-49
2023/08/10 07:59:17;;;;;;;5.65;3.42;;;;;;;43.46;20.58;100111.72;5021141;28;20069;-49
2023/08/10 08:01:43;;;;;;;4.95;3.08;;;;;;;43.31;20.29;100115.13;5017243;28;20070;-51
2023/08/10 08:04:09;;;;;;;4.75;3.25;;;;;;;43.54;20.47;100119.53;5019462;28;20057;-56
2023/08/10 08:06:36;;;;;;;5.63;3.53;;;;;;;42.67;21.21;100122.16;5016237;28;20044;-51
2023/08/10 08:09:04;;;;;;;4.38;3.00;;;;;;;42.30;21.39;100105.47;5028402;28;20041;-50
2023/08/10 08:11:30;;;;;;;2.95;2.60;;;;;;;43.08;20.67;100120.81;5030476;28;20049;-50
2023/08/10 08:13:56;;;;;;;2.97;2.78;;;;;;;43.12;20.15;100123.94;4994030;28;20083;-51
2023/08/10 08:16:22;;;;;;;8.35;4.05;;;;;;;43.29;20.02;100109.06;5033296;28;20464;-52
2023/08/10 08:18:50;;;;;;;4.38;3.00;;;;;;;43.50;20.07;100116.47;5029769;28;20045;-52
2023/08/10 08:21:20;;;;;;;6.45;3.05;;;;;;;43.66;19.96;100114.69;5020888;28;20051;-46
2023/08/10 08:23:47;;;;;;;4.68;3.15;;;;;;;42.89;20.65;100111.28;5029567;28;20064;-51
2023/08/10 08:26:14;;;;;;;5.82;3.08;;;;;;;43.48;19.85;100107.69;5025754;28;20072;-52
2023/08/10 08:28:42;;;;;;;5.15;3.35;;;;;;;43.94;19.56;100113.63;5026404;28;20073;-49
2023/08/10 08:31:08;;;;;;;3.67;3.30;;;;;;;44.24;18.93;100116.63;5020082;28;20526;-52
2023/08/10 08:33:35;;;;;;;3.40;2.90;;;;;;;43.50;19.67;100112.88;5016183;28;20034;-47
2023/08/10 08:36:01;;;;;;;;;;;;;;;41.20;21.21;100113.25;5025285;28;20420;-50
2023/08/10 08:38:27;;;;;;;7.03;4.63;;;;;;;39.46;23.22;100113.88;5062351;28;19916;-48
2023/08/10 08:40:55;;;;;;;3.38;2.40;;;;;;;40.53;22.27;100091.00;5034798;28;20037;-51
2023/08/10 08:43:21;;;;;;;;;;;;;;;40.16;22.65;100106.72;5009854;28;20041;-50
2023/08/10 08:45:47;;;;;;;4.95;2.47;;;;;;;38.17;24.90;100104.72;5031650;28;19935;-50
2023/08/10 08:48:17;;;;;;;5.85;2.60;;;;;;;36.82;26.81;100104.13;5015505;28;20690;-49
2023/08/10 08:50:46;;;;;;;6.20;2.53;;;;;;;35.65;28.13;100101.94;5024507;28;20149;-52
2023/08/10 08:53:12;;;;;;;6.38;2.65;;;;;;;34.20;29.22;100084.09;5004732;28;20135;-51
2023/08/10 08:55:39;;;;;;;5.57;2.50;;;;;;;33.28;30.83;100102.00;5029356;28;20429;-48
2023/08/10 08:58:05;;;;;;;4.22;2.47;;;;;;;32.41;32.08;100108.13;5037076;28;20040;-47
2023/08/10 09:00:32;;;;;;;9.48;2.50;;;;;;;31.70;32.83;100109.38;5025025;28;20148;-48
2023/08/10 09:02:59;;;;;;;6.85;2.90;;;;;;;31.19;33.84;100108.94;5026828;28;20115;-50
2023/08/10 09:05:25;;;;;;;5.13;2.40;;;;;;;30.80;34.42;100105.34;5028804;28;20040;-51
2023/08/10 09:07:51;;;;;;;5.10;2.33;;;;;;;30.49;35.32;100099.88;5010463;28;20034;-49
2023/08/10 09:10:18;;;;;;;4.95;2.60;;;;;;;30.10;36.31;100110.44;5033184;28;20167;-53
2023/08/10 09:12:45;;;;;;;;;;;;;;;29.86;35.89;100109.41;5024674;28;20041;-49
2023/08/10 09:15:13;;;;;;;5.63;2.60;;;;;;;29.88;36.13;100114.59;5022843;28;19917;-48
2023/08/10 09:17:51;;;;;;;3.72;2.42;;;;;;;30.18;36.01;100115.81;5036728;28;20029;-46
2023/08/10 09:20:18;;;;;;;6.97;2.37;;;;;;;31.10;34.45;100115.34;5039179;28;20576;-49
2023/08/10 09:22:44;;;;;;;4.85;2.25;;;;;;;30.80;34.95;100124.16;5025484;28;20081;-47
2023/08/10 09:25:10;;;;;;;3.40;2.50;;;;;;;31.28;34.16;100115.94;5029038;28;20520;-46
2023/08/10 09:27:36;;;;;;;2.20;2.00;;;;;;;34.23;29.92;100118.78;5025962;28;20043;-50
2023/08/10 09:30:06;;;;;;;3.72;2.08;;;;;;;36.98;26.51;100132.63;5028138;28;20149;-52
2023/08/10 09:32:35;;;;;;;3.45;2.40;;;;;;;39.07;24.54;100129.59;5012398;28;20047;-48
2023/08/10 09:35:03;;;;;;;4.43;2.17;;;;;;;39.93;23.74;100133.94;5025943;28;20131;-51
2023/08/10 09:37:32;;;;;;;3.47;3.10;;;;;;;39.22;23.82;100130.03;5028607;28;20048;-50
2023/08/10 09:40:10;;;;;;;2.65;2.05;;;;;;;37.32;25.56;100138.59;5010736;28;20732;-52
2023/08/10 09:42:37;;;;;;;3.63;2.40;;;;;;;35.87;27.08;100135.13;5027276;28;20136;-53
2023/08/10 09:45:10;;;;;;;7.13;2.90;;;;;;;37.18;25.89;100134.28;5023801;28;20053;-46
2023/08/10 09:47:42;;;;;;;6.32;3.53;;;;;;;39.28;23.55;100131.84;5027315;28;20037;-47
2023/08/10 09:50:09;;;;;;;5.90;3.70;;;;;;;41.14;22.33;100127.88;5024999;28;20049;-51
2023/08/10 09:52:36;;;;;;;9.65;3.47;;;;;;;42.95;21.09;100151.31;5024550;28;20044;-51
2023/08/10 09:55:05;;;;;;;4.68;2.72;;;;;;;43.14;20.46;100155.44;5029990;28;20072;-53
2023/08/10 09:57:33;;;;;;;5.70;2.90;;;;;;;42.85;20.79;100156.66;5029205;28;20034;-52
2023/08/10 09:59:59;;;;;;;6.03;3.25;;;;;;;43.26;20.16;100147.94;5021909;28;20124;-53
2023/08/10 10:02:26;;;;;;;5.37;2.60;;;;;;;42.30;20.33;100129.25;5023588;28;20472;-54
2023/08/10 10:04:52;;;;;;;4.47;2.88;;;;;;;39.69;22.81;100152.06;5020953;28;20073;-55
2023/08/10 10:07:24;;;;;;;3.92;2.25;;;;;;;37.42;25.27;100153.59;5006139;28;20037;-52
2023/08/10 10:09:51;;;;;;;8.27;2.40;;;;;;;35.76;26.81;100134.88;5028986;28;20060;-52
2023/08/10 10:12:18;;;;;;;6.18;2.30;;;;;;;34.74;28.44;100145.63;5029169;28;20132;-49
2023/08/10 10:14:47;;;;;;;5.60;3.13;;;;;;;33.99;29.59;100148.84;5030339;28;20037;-52
2023/08/10 10:17:15;;;;;;;3.85;2.38;;;;;;;33.25;30.18;100150.88;5022649;28;20029;-52
2023/08/10 10:19:42;;;;;;;6.05;4.13;;;;;;;32.83;30.68;100129.09;5023394;28;20405;-49
2023/08/10 10:22:09;;;;;;;3.92;3.53;;;;;;;35.28;28.42;100148.41;5028834;28;20030;-50
2023/08/10 10:24:40;;;;;;;4.75;2.45;;;;;;;38.29;25.02;100150.19;5024264;28;20083;-49
2023/08/10 10:27:11;;;;;;;4.97;3.38;;;;;;;40.24;22.72;100144.59;5028215;28;20037;-53
2023/08/10 10:29:51;;;;;;;4.38;2.70;;;;;;;42.05;20.60;100167.91;5026795;28;20060;-52
2023/08/10 10:32:19;;;;;;;5.53;2.33;;;;;;;41.21;21.04;100159.41;5044159;28;20045;-49
2023/08/10 10:34:46;;;;;;;5.70;2.08;;;;;;;40.21;21.49;100162.22;5025969;28;20520;-49
2023/08/10 10:37:27;;;;;;;2.80;1.88;;;;;;;38.30;22.97;100157.28;5025619;28;20033;-53
2023/08/10 10:40:23;;;;;;;3.38;2.30;;;;;;;36.34;25.34;100150.41;5010906;28;20550;-47
2023/08/10 10:43:01;;;;;;;4.10;2.30;;;;;;;34.90;27.17;100131.78;5024694;28;20037;-46
2023/08/10 10:45:27;;;;;;;4.13;2.40;;;;;;;34.98;27.82;100150.53;5026683;28;20045;-50
2023/08/10 10:47:55;;;;;;;4.65;2.78;;;;;;;34.72;28.38;100153.91;5023390;28;20034;-51
2023/08/10 10:50:27;;;;;;;4.75;2.50;;;;;;;34.17;29.12;100146.56;5010930;28;20088;-48
2023/08/10 10:53:03;;;;;;;3.70;2.50;;;;;;;33.66;29.93;100147.63;5026070;28;20060;-48
2023/08/10 10:55:35;;;;;;;5.68;2.50;;;;;;;34.50;29.20;100143.31;5029832;28;20041;-52
2023/08/10 10:58:02;;;;;;;6.32;2.47;;;;;;;34.15;29.49;100143.19;5021037;28;20040;-46
2023/08/10 11:00:29;;;;;;;4.65;2.38;;;;;;;33.56;30.04;100140.69;5025658;28;20041;-47
2023/08/10 11:02:55;;;;;;;4.43;2.63;;;;;;;33.01;30.71;100134.97;5047489;28;20081;-49
2023/08/10 11:05:21;;;;;;;4.55;2.33;;;;;;;32.52;31.24;100143.53;5024486;28;20076;-48
2023/08/10 11:07:50;;;;;;;4.65;2.28;;;;;;;32.43;31.86;100146.50;5010156;28;20075;-47
2023/08/10 11:10:17;;;;;;;4.80;2.55;;;;;;;32.18;32.27;100144.00;5026404;28;20102;-53
2023/08/10 11:12:44;;;;;;;5.53;2.50;;;;;;;32.06;32.57;100137.34;5023266;28;20160;-49
2023/08/10 11:15:12;;;;;;;4.88;2.72;;;;;;;31.78;33.04;100138.88;5022774;28;20045;-51
2023/08/10 11:17:46;;;;;;;4.93;2.70;;;;;;;32.74;31.99;100137.28;5022909;28;20039;-52
2023/08/10 11:20:15;;;;;;;4.55;2.83;;;;;;;35.44;28.31;100122.91;5024053;28;20041;-48
2023/08/10 11:22:45;;;;;;;4.70;3.60;;;;;;;37.38;26.13;100130.63;5023940;28;20045;-47
2023/08/10 11:25:12;;;;;;;4.40;2.70;;;;;;;39.01;24.56;100146.81;5026716;28;20049;-51
2023/08/10 11:27:40;;;;;;;5.30;2.65;;;;;;;40.17;23.24;100130.19;5011862;28;20501;-49
2023/08/10 11:30:09;;;;;;;;;;;;;;;41.09;22.59;100160.53;5020022;28;20045;-50